sensor_id;sensor_type;location;lat;lon;timestamp;P1;durP1;ratioP1;P2;durP2;ratioP2
14092;SDS011;7123;49.468;10.992;2023-08-08T00:01:14;2.70;;;2.13;;
14092;SDS011;7123;49.468;10.992;2023-08-08T00:03:40;2.17;;;1.97;;
14092;SDS011;7123;49.468;10.992;2023-08-08T00:06:07;4.73;;;2.30;;
14092;SDS011;7123;49.468;10.992;2023-08-08T00:08:34;2.27;;;2.07;;
14092;SDS011;7123;49.468;10.992;2023-08-08T00:11:01;3.03;;;2.47;;
14092;SDS011;7123;49.468;10.992;2023-08-08T00:13:28;3.33;;;2.20;;
14092;SDS011;7123;49.468;10.992;2023-08-08T00:15:54;5.20;;;2.10;;
14092;SDS011;7123;49.468;10.992;2023-08-08T00:18:21;2.97;;;2.10;;
14092;SDS011;7123;49.468;10.992;2023-08-08T00:20:48;3.23;;;2.23;;
14092;SDS011;7123;49.468;10.992;2023-08-08T00:23:15;3.33;;;2.27;;
14092;SDS011;7123;49.468;10.992;2023-08-08T00:25:42;3.00;;;2.30;;
14092;SDS011;7123;49.468;10.992;2023-08-08T00:28:09;2.37;;;2.00;;
14092;SDS011;7123;49.468;10.992;2023-08-08T00:30:36;2.17;;;2.07;;
14092;SDS011;7123;49.468;10.992;2023-08-08T00:33:02;2.50;;;2.30;;
14092;SDS011;7123;49.468;10.992;2023-08-08T00:35:29;4.30;;;2.13;;
14092;SDS011;7123;49.468;10.992;2023-08-08T00:37:56;2.20;;;2.10;;
14092;SDS011;7123;49.468;10.992;2023-08-08T00:40:23;2.37;;;2.20;;
14092;SDS011;7123;49.468;10.992;2023-08-08T00:42:50;4.70;;;2.30;;
14092;SDS011;7123;49.468;10.992;2023-08-08T00:45:16;2.07;;;1.90;;
14092;SDS011;7123;49.468;10.992;2023-08-08T00:47:43;3.30;;;2.10;;
14092;SDS011;7123;49.468;10.992;2023-08-08T00:50:11;2.50;;;2.10;;
14092;SDS011;7123;49.468;10.992;2023-08-08T00:52:39;2.70;;;2.50;;
14092;SDS011;7123;49.468;10.992;2023-08-08T00:55:07;4.23;;;2.30;;
14092;SDS011;7123;49.468;10.992;2023-08-08T00:57:35;3.97;;;2.20;;
14092;SDS011;7123;49.468;10.992;2023-08-08T01:00:05;2.23;;;2.13;;
14092;SDS011;7123;49.468;10.992;2023-08-08T01:02:33;3.83;;;2.20;;
14092;SDS011;7123;49.468;10.992;2023-08-08T01:05:00;2.50;;;2.30;;
14092;SDS011;7123;49.468;10.992;2023-08-08T01:10:08;3.53;;;2.20;;
14092;SDS011;7123;49.468;10.992;2023-08-08T01:12:40;2.50;;;2.30;;
14092;SDS011;7123;49.468;10.992;2023-08-08T01:15:13;2.30;;;2.10;;
14092;SDS011;7123;49.468;10.992;2023-08-08T01:17:41;3.87;;;2.20;;
14092;SDS011;7123;49.468;10.992;2023-08-08T01:20:08;2.43;;;2.33;;
14092;SDS011;7123;49.468;10.992;2023-08-08T01:22:42;2.73;;;1.93;;
14092;SDS011;7123;49.468;10.992;2023-08-08T01:25:16;2.83;;;2.30;;
14092;SDS011;7123;49.468;10.992;2023-08-08T01:27:43;2.30;;;2.10;;
14092;SDS011;7123;49.468;10.992;2023-08-08T01:30:11;2.40;;;1.90;;
14092;SDS011;7123;49.468;10.992;2023-08-08T01:32:38;3.77;;;2.23;;
14092;SDS011;7123;49.468;10.992;2023-08-08T01:35:05;2.50;;;1.90;;
14092;SDS011;7123;49.468;10.992;2023-08-08T01:37:39;2.60;;;1.80;;
14092;SDS011;7123;49.468;10.992;2023-08-08T01:40:12;2.60;;;1.90;;
14092;SDS011;7123;49.468;10.992;2023-08-08T01:42:41;2.80;;;1.90;;
14092;SDS011;7123;49.468;10.992;2023-08-08T01:45:09;5.07;;;2.40;;
14092;SDS011;7123;49.468;10.992;2023-08-08T01:47:37;2.63;;;1.93;;
14092;SDS011;7123;49.468;10.992;2023-08-08T01:50:04;2.23;;;2.10;;
14092;SDS011;7123;49.468;10.992;2023-08-08T01:52:32;3.93;;;2.07;;
14092;SDS011;7123;49.468;10.992;2023-08-08T01:54:58;4.23;;;1.90;;
14092;SDS011;7123;49.468;10.992;2023-08-08T01:57:25;1.80;;;1.70;;
14092;SDS011;7123;49.468;10.992;2023-08-08T01:59:52;2.10;;;1.90;;
14092;SDS011;7123;49.468;10.992;2023-08-08T02:02:18;5.77;;;2.07;;
14092;SDS011;7123;49.468;10.992;2023-08-08T02:04:45;1.93;;;1.83;;
14092;SDS011;7123;49.468;10.992;2023-08-08T02:07:12;3.53;;;1.70;;
14092;SDS011;7123;49.468;10.992;2023-08-08T02:09:39;2.10;;;1.87;;
14092;SDS011;7123;49.468;10.992;2023-08-08T02:12:06;2.23;;;1.97;;
14092;SDS011;7123;49.468;10.992;2023-08-08T02:14:33;2.43;;;1.70;;
14092;SDS011;7123;49.468;10.992;2023-08-08T02:17:00;3.43;;;1.90;;
14092;SDS011;7123;49.468;10.992;2023-08-08T02:19:26;2.57;;;1.90;;
14092;SDS011;7123;49.468;10.992;2023-08-08T02:21:53;3.37;;;1.50;;
14092;SDS011;7123;49.468;10.992;2023-08-08T02:24:20;1.63;;;1.53;;
14092;SDS011;7123;49.468;10.992;2023-08-08T02:26:47;1.70;;;1.60;;
14092;SDS011;7123;49.468;10.992;2023-08-08T02:29:14;3.07;;;1.77;;
14092;SDS011;7123;49.468;10.992;2023-08-08T02:31:41;1.50;;;1.40;;
14092;SDS011;7123;49.468;10.992;2023-08-08T02:34:08;2.27;;;1.60;;
14092;SDS011;7123;49.468;10.992;2023-08-08T02:36:35;1.53;;;1.43;;
14092;SDS011;7123;49.468;10.992;2023-08-08T02:39:02;2.70;;;1.87;;
14092;SDS011;7123;49.468;10.992;2023-08-08T02:41:29;2.17;;;1.60;;
14092;SDS011;7123;49.468;10.992;2023-08-08T02:43:56;2.63;;;1.63;;
14092;SDS011;7123;49.468;10.992;2023-08-08T02:46:22;2.03;;;1.50;;
14092;SDS011;7123;49.468;10.992;2023-08-08T02:48:49;2.43;;;1.77;;
14092;SDS011;7123;49.468;10.992;2023-08-08T02:51:16;3.00;;;1.50;;
14092;SDS011;7123;49.468;10.992;2023-08-08T02:53:43;1.53;;;1.43;;
14092;SDS011;7123;49.468;10.992;2023-08-08T02:56:09;3.03;;;1.20;;
14092;SDS011;7123;49.468;10.992;2023-08-08T02:58:36;1.30;;;1.27;;
14092;SDS011;7123;49.468;10.992;2023-08-08T03:01:03;3.00;;;1.43;;
14092;SDS011;7123;49.468;10.992;2023-08-08T03:03:30;1.73;;;1.30;;
14092;SDS011;7123;49.468;10.992;2023-08-08T03:05:57;1.63;;;1.30;;
14092;SDS011;7123;49.468;10.992;2023-08-08T03:08:24;1.50;;;1.40;;
14092;SDS011;7123;49.468;10.992;2023-08-08T03:10:51;1.90;;;1.80;;
14092;SDS011;7123;49.468;10.992;2023-08-08T03:13:17;1.53;;;1.40;;
14092;SDS011;7123;49.468;10.992;2023-08-08T03:15:46;1.50;;;1.40;;
14092;SDS011;7123;49.468;10.992;2023-08-08T03:18:12;1.60;;;1.50;;
14092;SDS011;7123;49.468;10.992;2023-08-08T03:20:39;1.50;;;1.40;;
14092;SDS011;7123;49.468;10.992;2023-08-08T03:23:06;1.80;;;1.53;;
14092;SDS011;7123;49.468;10.992;2023-08-08T03:25:33;2.30;;;1.50;;
14092;SDS011;7123;49.468;10.992;2023-08-08T03:28:00;2.80;;;1.63;;
14092;SDS011;7123;49.468;10.992;2023-08-08T03:30:27;1.80;;;1.70;;
14092;SDS011;7123;49.468;10.992;2023-08-08T03:32:53;3.03;;;1.90;;
14092;SDS011;7123;49.468;10.992;2023-08-08T03:35:20;2.50;;;1.70;;
14092;SDS011;7123;49.468;10.992;2023-08-08T03:37:47;1.67;;;1.57;;
14092;SDS011;7123;49.468;10.992;2023-08-08T03:40:14;4.20;;;1.70;;
14092;SDS011;7123;49.468;10.992;2023-08-08T03:42:41;1.73;;;1.63;;
14092;SDS011;7123;49.468;10.992;2023-08-08T03:45:08;1.80;;;1.57;;
14092;SDS011;7123;49.468;10.992;2023-08-08T03:47:35;1.87;;;1.77;;
14092;SDS011;7123;49.468;10.992;2023-08-08T03:50:02;2.63;;;1.80;;
14092;SDS011;7123;49.468;10.992;2023-08-08T03:52:30;2.03;;;1.70;;
14092;SDS011;7123;49.468;10.992;2023-08-08T03:54:59;2.00;;;1.90;;
14092;SDS011;7123;49.468;10.992;2023-08-08T03:57:26;2.33;;;1.90;;
14092;SDS011;7123;49.468;10.992;2023-08-08T03:59:52;2.00;;;1.77;;
14092;SDS011;7123;49.468;10.992;2023-08-08T04:02:19;2.80;;;1.57;;
14092;SDS011;7123;49.468;10.992;2023-08-08T04:04:46;1.73;;;1.50;;
14092;SDS011;7123;49.468;10.992;2023-08-08T04:07:13;1.90;;;1.70;;
14092;SDS011;7123;49.468;10.992;2023-08-08T04:09:40;4.00;;;1.90;;
14092;SDS011;7123;49.468;10.992;2023-08-08T04:12:07;2.10;;;2.00;;
14092;SDS011;7123;49.468;10.992;2023-08-08T04:14:34;3.07;;;1.70;;
14092;SDS011;7123;49.468;10.992;2023-08-08T04:17:01;1.60;;;1.50;;
14092;SDS011;7123;49.468;10.992;2023-08-08T04:19:29;2.70;;;1.70;;
14092;SDS011;7123;49.468;10.992;2023-08-08T04:21:56;2.20;;;1.97;;
14092;SDS011;7123;49.468;10.992;2023-08-08T04:24:23;1.53;;;1.43;;
14092;SDS011;7123;49.468;10.992;2023-08-08T04:26:50;3.93;;;1.40;;
14092;SDS011;7123;49.468;10.992;2023-08-08T04:29:16;3.63;;;2.00;;
14092;SDS011;7123;49.468;10.992;2023-08-08T04:31:43;2.80;;;1.60;;
14092;SDS011;7123;49.468;10.992;2023-08-08T04:34:10;2.10;;;1.90;;
14092;SDS011;7123;49.468;10.992;2023-08-08T04:36:37;2.00;;;1.90;;
14092;SDS011;7123;49.468;10.992;2023-08-08T04:39:03;1.90;;;1.80;;
14092;SDS011;7123;49.468;10.992;2023-08-08T04:41:30;2.13;;;1.93;;
14092;SDS011;7123;49.468;10.992;2023-08-08T04:43:57;1.90;;;1.63;;
14092;SDS011;7123;49.468;10.992;2023-08-08T04:46:24;1.93;;;1.73;;
14092;SDS011;7123;49.468;10.992;2023-08-08T04:48:51;2.87;;;1.77;;
14092;SDS011;7123;49.468;10.992;2023-08-08T04:51:17;2.00;;;1.90;;
14092;SDS011;7123;49.468;10.992;2023-08-08T04:53:45;2.23;;;1.60;;
14092;SDS011;7123;49.468;10.992;2023-08-08T04:56:12;2.30;;;2.10;;
14092;SDS011;7123;49.468;10.992;2023-08-08T04:58:39;4.27;;;1.97;;
14092;SDS011;7123;49.468;10.992;2023-08-08T05:01:05;1.83;;;1.70;;
14092;SDS011;7123;49.468;10.992;2023-08-08T05:03:35;2.07;;;1.97;;
14092;SDS011;7123;49.468;10.992;2023-08-08T05:06:02;1.73;;;1.63;;
14092;SDS011;7123;49.468;10.992;2023-08-08T05:08:29;2.40;;;2.20;;
14092;SDS011;7123;49.468;10.992;2023-08-08T05:10:56;2.67;;;1.70;;
14092;SDS011;7123;49.468;10.992;2023-08-08T05:13:23;3.30;;;1.90;;
14092;SDS011;7123;49.468;10.992;2023-08-08T05:15:49;2.63;;;2.10;;
14092;SDS011;7123;49.468;10.992;2023-08-08T05:18:16;2.73;;;2.13;;
14092;SDS011;7123;49.468;10.992;2023-08-08T05:20:43;2.27;;;1.70;;
14092;SDS011;7123;49.468;10.992;2023-08-08T05:23:10;2.07;;;1.90;;
14092;SDS011;7123;49.468;10.992;2023-08-08T05:25:36;2.60;;;2.00;;
14092;SDS011;7123;49.468;10.992;2023-08-08T05:28:03;2.80;;;1.80;;
14092;SDS011;7123;49.468;10.992;2023-08-08T05:30:30;5.17;;;2.00;;
14092;SDS011;7123;49.468;10.992;2023-08-08T05:32:57;4.33;;;1.73;;
14092;SDS011;7123;49.468;10.992;2023-08-08T05:35:24;2.10;;;1.90;;
14092;SDS011;7123;49.468;10.992;2023-08-08T05:37:51;2.53;;;2.10;;
14092;SDS011;7123;49.468;10.992;2023-08-08T05:40:20;2.07;;;1.83;;
14092;SDS011;7123;49.468;10.992;2023-08-08T05:42:47;1.77;;;1.67;;
14092;SDS011;7123;49.468;10.992;2023-08-08T05:45:14;2.30;;;2.10;;
14092;SDS011;7123;49.468;10.992;2023-08-08T05:47:41;3.80;;;2.27;;
14092;SDS011;7123;49.468;10.992;2023-08-08T05:50:08;7.50;;;2.30;;
14092;SDS011;7123;49.468;10.992;2023-08-08T05:52:35;3.70;;;2.17;;
14092;SDS011;7123;49.468;10.992;2023-08-08T05:55:02;5.80;;;1.87;;
14092;SDS011;7123;49.468;10.992;2023-08-08T05:57:29;3.13;;;1.80;;
14092;SDS011;7123;49.468;10.992;2023-08-08T05:59:56;2.47;;;2.10;;
14092;SDS011;7123;49.468;10.992;2023-08-08T06:02:24;2.10;;;2.00;;
14092;SDS011;7123;49.468;10.992;2023-08-08T06:04:51;4.67;;;2.07;;
14092;SDS011;7123;49.468;10.992;2023-08-08T06:07:18;4.53;;;2.10;;
14092;SDS011;7123;49.468;10.992;2023-08-08T06:09:45;5.73;;;2.20;;
14092;SDS011;7123;49.468;10.992;2023-08-08T06:12:12;4.73;;;1.80;;
14092;SDS011;7123;49.468;10.992;2023-08-08T06:14:39;4.13;;;1.63;;
14092;SDS011;7123;49.468;10.992;2023-08-08T06:17:06;2.03;;;1.70;;
14092;SDS011;7123;49.468;10.992;2023-08-08T06:19:32;1.73;;;1.63;;
14092;SDS011;7123;49.468;10.992;2023-08-08T06:21:59;2.40;;;2.20;;
14092;SDS011;7123;49.468;10.992;2023-08-08T06:24:27;9.37;;;2.20;;
14092;SDS011;7123;49.468;10.992;2023-08-08T06:26:53;2.17;;;1.63;;
14092;SDS011;7123;49.468;10.992;2023-08-08T06:29:20;2.63;;;2.30;;
14092;SDS011;7123;49.468;10.992;2023-08-08T06:31:47;3.37;;;1.70;;
14092;SDS011;7123;49.468;10.992;2023-08-08T06:34:14;2.43;;;1.70;;
14092;SDS011;7123;49.468;10.992;2023-08-08T06:36:41;1.70;;;1.60;;
14092;SDS011;7123;49.468;10.992;2023-08-08T06:39:08;2.50;;;1.60;;
14092;SDS011;7123;49.468;10.992;2023-08-08T06:41:35;2.17;;;1.50;;
14092;SDS011;7123;49.468;10.992;2023-08-08T06:44:02;1.70;;;1.60;;
14092;SDS011;7123;49.468;10.992;2023-08-08T06:46:29;1.97;;;1.77;;
14092;SDS011;7123;49.468;10.992;2023-08-08T06:48:56;3.50;;;1.90;;
14092;SDS011;7123;49.468;10.992;2023-08-08T06:51:25;1.80;;;1.70;;
14092;SDS011;7123;49.468;10.992;2023-08-08T06:53:52;2.30;;;1.70;;
14092;SDS011;7123;49.468;10.992;2023-08-08T06:56:19;1.97;;;1.70;;
14092;SDS011;7123;49.468;10.992;2023-08-08T06:58:46;3.23;;;1.93;;
14092;SDS011;7123;49.468;10.992;2023-08-08T07:01:12;2.43;;;2.00;;
14092;SDS011;7123;49.468;10.992;2023-08-08T07:03:40;2.27;;;2.00;;
14092;SDS011;7123;49.468;10.992;2023-08-08T07:06:07;2.20;;;1.47;;
14092;SDS011;7123;49.468;10.992;2023-08-08T07:08:34;1.90;;;1.80;;
14092;SDS011;7123;49.468;10.992;2023-08-08T07:11:05;2.20;;;1.60;;
14092;SDS011;7123;49.468;10.992;2023-08-08T07:13:32;3.43;;;1.57;;
14092;SDS011;7123;49.468;10.992;2023-08-08T07:15:59;3.57;;;1.80;;
14092;SDS011;7123;49.468;10.992;2023-08-08T07:18:27;4.70;;;1.37;;
14092;SDS011;7123;49.468;10.992;2023-08-08T07:20:54;1.87;;;1.50;;
14092;SDS011;7123;49.468;10.992;2023-08-08T07:23:22;3.07;;;1.40;;
14092;SDS011;7123;49.468;10.992;2023-08-08T07:25:49;2.43;;;1.50;;
14092;SDS011;7123;49.468;10.992;2023-08-08T07:28:17;2.27;;;1.60;;
14092;SDS011;7123;49.468;10.992;2023-08-08T07:30:44;2.10;;;1.50;;
14092;SDS011;7123;49.468;10.992;2023-08-08T07:33:11;2.33;;;1.57;;
14092;SDS011;7123;49.468;10.992;2023-08-08T07:35:37;2.87;;;1.57;;
14092;SDS011;7123;49.468;10.992;2023-08-08T07:38:04;2.40;;;1.83;;
14092;SDS011;7123;49.468;10.992;2023-08-08T07:40:31;3.37;;;1.70;;
14092;SDS011;7123;49.468;10.992;2023-08-08T07:42:58;2.80;;;1.50;;
14092;SDS011;7123;49.468;10.992;2023-08-08T07:45:25;3.33;;;2.23;;
14092;SDS011;7123;49.468;10.992;2023-08-08T07:47:52;1.73;;;1.60;;
14092;SDS011;7123;49.468;10.992;2023-08-08T07:50:19;2.23;;;1.47;;
14092;SDS011;7123;49.468;10.992;2023-08-08T07:52:45;5.53;;;1.70;;
14092;SDS011;7123;49.468;10.992;2023-08-08T07:55:12;1.50;;;1.40;;
14092;SDS011;7123;49.468;10.992;2023-08-08T07:57:39;1.67;;;1.30;;
14092;SDS011;7123;49.468;10.992;2023-08-08T08:00:06;3.10;;;1.73;;
14092;SDS011;7123;49.468;10.992;2023-08-08T08:02:38;1.80;;;1.47;;
14092;SDS011;7123;49.468;10.992;2023-08-08T08:05:06;3.83;;;1.80;;
14092;SDS011;7123;49.468;10.992;2023-08-08T08:07:34;1.80;;;1.70;;
14092;SDS011;7123;49.468;10.992;2023-08-08T08:10:05;2.00;;;1.40;;
14092;SDS011;7123;49.468;10.992;2023-08-08T08:12:35;2.57;;;1.30;;
14092;SDS011;7123;49.468;10.992;2023-08-08T08:15:02;2.93;;;1.33;;
14092;SDS011;7123;49.468;10.992;2023-08-08T08:17:30;5.70;;;1.57;;
14092;SDS011;7123;49.468;10.992;2023-08-08T08:19:57;3.37;;;1.13;;
14092;SDS011;7123;49.468;10.992;2023-08-08T08:22:24;1.63;;;1.13;;
14092;SDS011;7123;49.468;10.992;2023-08-08T08:24:51;1.47;;;1.10;;
14092;SDS011;7123;49.468;10.992;2023-08-08T08:27:18;1.53;;;1.23;;
14092;SDS011;7123;49.468;10.992;2023-08-08T08:29:45;1.93;;;0.90;;
14092;SDS011;7123;49.468;10.992;2023-08-08T08:32:12;1.33;;;1.23;;
14092;SDS011;7123;49.468;10.992;2023-08-08T08:34:38;1.47;;;1.20;;
14092;SDS011;7123;49.468;10.992;2023-08-08T08:37:05;3.53;;;1.00;;
14092;SDS011;7123;49.468;10.992;2023-08-08T08:39:32;1.33;;;1.23;;
14092;SDS011;7123;49.468;10.992;2023-08-08T08:41:59;3.70;;;1.00;;
14092;SDS011;7123;49.468;10.992;2023-08-08T08:44:30;1.53;;;1.10;;
14092;SDS011;7123;49.468;10.992;2023-08-08T08:47:01;3.10;;;1.20;;
14092;SDS011;7123;49.468;10.992;2023-08-08T08:49:30;1.20;;;0.97;;
14092;SDS011;7123;49.468;10.992;2023-08-08T08:51:58;1.23;;;1.03;;
14092;SDS011;7123;49.468;10.992;2023-08-08T08:54:31;1.47;;;1.10;;
14092;SDS011;7123;49.468;10.992;2023-08-08T08:56:59;2.83;;;1.17;;
14092;SDS011;7123;49.468;10.992;2023-08-08T08:59:26;1.00;;;1.00;;
14092;SDS011;7123;49.468;10.992;2023-08-08T09:01:53;4.50;;;1.40;;
14092;SDS011;7123;49.468;10.992;2023-08-08T09:04:21;3.13;;;1.03;;
14092;SDS011;7123;49.468;10.992;2023-08-08T09:06:49;2.80;;;0.97;;
14092;SDS011;7123;49.468;10.992;2023-08-08T09:09:17;2.73;;;0.93;;
14092;SDS011;7123;49.468;10.992;2023-08-08T09:11:47;0.93;;;0.93;;
14092;SDS011;7123;49.468;10.992;2023-08-08T09:14:20;1.73;;;0.90;;
14092;SDS011;7123;49.468;10.992;2023-08-08T09:16:48;3.00;;;1.10;;
14092;SDS011;7123;49.468;10.992;2023-08-08T09:19:16;2.77;;;1.10;;
14092;SDS011;7123;49.468;10.992;2023-08-08T09:21:47;1.33;;;0.93;;
14092;SDS011;7123;49.468;10.992;2023-08-08T09:24:14;1.50;;;0.97;;
14092;SDS011;7123;49.468;10.992;2023-08-08T09:26:43;3.30;;;1.20;;
14092;SDS011;7123;49.468;10.992;2023-08-08T09:29:11;1.00;;;0.97;;
14092;SDS011;7123;49.468;10.992;2023-08-08T09:31:39;2.87;;;1.00;;
14092;SDS011;7123;49.468;10.992;2023-08-08T09:34:06;4.43;;;1.33;;
14092;SDS011;7123;49.468;10.992;2023-08-08T09:36:33;0.93;;;0.80;;
14092;SDS011;7123;49.468;10.992;2023-08-08T09:39:01;1.13;;;0.90;;
14092;SDS011;7123;49.468;10.992;2023-08-08T09:41:30;2.33;;;1.10;;
14092;SDS011;7123;49.468;10.992;2023-08-08T09:44:00;1.20;;;1.00;;
14092;SDS011;7123;49.468;10.992;2023-08-08T09:46:28;1.30;;;0.90;;
14092;SDS011;7123;49.468;10.992;2023-08-08T09:48:58;0.97;;;0.80;;
14092;SDS011;7123;49.468;10.992;2023-08-08T09:51:25;1.57;;;0.90;;
14092;SDS011;7123;49.468;10.992;2023-08-08T09:53:53;4.77;;;0.97;;
14092;SDS011;7123;49.468;10.992;2023-08-08T09:56:21;1.83;;;0.90;;
14092;SDS011;7123;49.468;10.992;2023-08-08T09:58:52;1.37;;;1.10;;
14092;SDS011;7123;49.468;10.992;2023-08-08T10:01:20;1.40;;;1.23;;
14092;SDS011;7123;49.468;10.992;2023-08-08T10:03:48;3.40;;;1.17;;
14092;SDS011;7123;49.468;10.992;2023-08-08T10:06:17;1.97;;;1.10;;
14092;SDS011;7123;49.468;10.992;2023-08-08T10:08:44;1.40;;;1.20;;
14092;SDS011;7123;49.468;10.992;2023-08-08T10:11:12;1.93;;;0.90;;
14092;SDS011;7123;49.468;10.992;2023-08-08T10:13:47;3.53;;;1.07;;
14092;SDS011;7123;49.468;10.992;2023-08-08T10:16:16;1.30;;;0.90;;
14092;SDS011;7123;49.468;10.992;2023-08-08T10:18:45;1.23;;;1.00;;
14092;SDS011;7123;49.468;10.992;2023-08-08T10:21:20;1.00;;;1.00;;
14092;SDS011;7123;49.468;10.992;2023-08-08T10:23:49;2.77;;;1.10;;
14092;SDS011;7123;49.468;10.992;2023-08-08T10:26:19;1.93;;;1.10;;
14092;SDS011;7123;49.468;10.992;2023-08-08T10:28:55;2.53;;;1.10;;
14092;SDS011;7123;49.468;10.992;2023-08-08T10:31:25;3.37;;;1.10;;
14092;SDS011;7123;49.468;10.992;2023-08-08T10:34:03;1.67;;;1.00;;
14092;SDS011;7123;49.468;10.992;2023-08-08T10:36:44;1.53;;;0.83;;
14092;SDS011;7123;49.468;10.992;2023-08-08T10:39:19;2.50;;;1.33;;
14092;SDS011;7123;49.468;10.992;2023-08-08T10:41:47;3.60;;;1.40;;
14092;SDS011;7123;49.468;10.992;2023-08-08T10:44:24;3.60;;;1.10;;
14092;SDS011;7123;49.468;10.992;2023-08-08T10:46:52;1.53;;;1.10;;
14092;SDS011;7123;49.468;10.992;2023-08-08T10:49:22;1.33;;;1.00;;
14092;SDS011;7123;49.468;10.992;2023-08-08T10:51:49;1.10;;;1.00;;
14092;SDS011;7123;49.468;10.992;2023-08-08T10:54:19;2.60;;;0.90;;
14092;SDS011;7123;49.468;10.992;2023-08-08T10:56:54;2.77;;;1.17;;
14092;SDS011;7123;49.468;10.992;2023-08-08T10:59:35;1.63;;;1.10;;
14092;SDS011;7123;49.468;10.992;2023-08-08T11:02:04;2.20;;;1.03;;
14092;SDS011;7123;49.468;10.992;2023-08-08T11:04:31;1.43;;;1.07;;
14092;SDS011;7123;49.468;10.992;2023-08-08T11:06:59;1.60;;;1.07;;
14092;SDS011;7123;49.468;10.992;2023-08-08T11:09:27;4.33;;;1.20;;
14092;SDS011;7123;49.468;10.992;2023-08-08T11:11:54;0.90;;;0.90;;
14092;SDS011;7123;49.468;10.992;2023-08-08T11:14:23;2.97;;;1.00;;
14092;SDS011;7123;49.468;10.992;2023-08-08T11:16:50;1.13;;;0.97;;
14092;SDS011;7123;49.468;10.992;2023-08-08T11:19:18;1.30;;;1.00;;
14092;SDS011;7123;49.468;10.992;2023-08-08T11:21:46;2.07;;;1.03;;
14092;SDS011;7123;49.468;10.992;2023-08-08T11:24:14;1.10;;;1.00;;
14092;SDS011;7123;49.468;10.992;2023-08-08T11:26:42;1.00;;;1.00;;
14092;SDS011;7123;49.468;10.992;2023-08-08T11:29:11;3.00;;;1.03;;
14092;SDS011;7123;49.468;10.992;2023-08-08T11:31:38;3.87;;;1.13;;
14092;SDS011;7123;49.468;10.992;2023-08-08T11:34:05;2.63;;;1.10;;
14092;SDS011;7123;49.468;10.992;2023-08-08T11:36:32;2.93;;;1.20;;
14092;SDS011;7123;49.468;10.992;2023-08-08T11:39:04;1.80;;;1.00;;
14092;SDS011;7123;49.468;10.992;2023-08-08T11:41:37;1.13;;;0.87;;
14092;SDS011;7123;49.468;10.992;2023-08-08T11:44:04;1.37;;;1.20;;
14092;SDS011;7123;49.468;10.992;2023-08-08T11:46:32;1.17;;;1.10;;
14092;SDS011;7123;49.468;10.992;2023-08-08T11:49:06;2.33;;;1.40;;
14092;SDS011;7123;49.468;10.992;2023-08-08T11:51:34;2.73;;;0.90;;
14092;SDS011;7123;49.468;10.992;2023-08-08T11:54:03;4.37;;;1.27;;
14092;SDS011;7123;49.468;10.992;2023-08-08T11:56:35;3.77;;;1.10;;
14092;SDS011;7123;49.468;10.992;2023-08-08T11:59:03;2.43;;;1.20;;
14092;SDS011;7123;49.468;10.992;2023-08-08T12:01:31;1.13;;;0.90;;
14092;SDS011;7123;49.468;10.992;2023-08-08T12:04:04;1.10;;;1.00;;
14092;SDS011;7123;49.468;10.992;2023-08-08T12:06:33;2.30;;;1.20;;
14092;SDS011;7123;49.468;10.992;2023-08-08T12:09:05;2.07;;;1.27;;
14092;SDS011;7123;49.468;10.992;2023-08-08T12:11:35;1.83;;;1.10;;
14092;SDS011;7123;49.468;10.992;2023-08-08T12:14:07;2.17;;;1.30;;
14092;SDS011;7123;49.468;10.992;2023-08-08T12:16:36;1.63;;;0.90;;
14092;SDS011;7123;49.468;10.992;2023-08-08T12:19:06;4.07;;;0.93;;
14092;SDS011;7123;49.468;10.992;2023-08-08T12:21:35;1.00;;;1.00;;
14092;SDS011;7123;49.468;10.992;2023-08-08T12:24:02;1.60;;;1.00;;
14092;SDS011;7123;49.468;10.992;2023-08-08T12:26:29;1.70;;;1.03;;
14092;SDS011;7123;49.468;10.992;2023-08-08T12:28:56;2.67;;;0.80;;
14092;SDS011;7123;49.468;10.992;2023-08-08T12:31:23;1.27;;;1.13;;
14092;SDS011;7123;49.468;10.992;2023-08-08T12:33:50;1.13;;;1.00;;
14092;SDS011;7123;49.468;10.992;2023-08-08T12:36:19;1.37;;;1.27;;
14092;SDS011;7123;49.468;10.992;2023-08-08T12:38:46;1.40;;;1.20;;
14092;SDS011;7123;49.468;10.992;2023-08-08T12:41:13;1.53;;;1.10;;
14092;SDS011;7123;49.468;10.992;2023-08-08T12:43:40;1.27;;;1.17;;
14092;SDS011;7123;49.468;10.992;2023-08-08T12:46:07;1.63;;;1.53;;
14092;SDS011;7123;49.468;10.992;2023-08-08T12:48:34;3.27;;;1.10;;
14092;SDS011;7123;49.468;10.992;2023-08-08T12:51:01;1.67;;;1.57;;
14092;SDS011;7123;49.468;10.992;2023-08-08T12:53:27;1.27;;;1.17;;
14092;SDS011;7123;49.468;10.992;2023-08-08T12:55:54;1.47;;;1.20;;
14092;SDS011;7123;49.468;10.992;2023-08-08T12:58:21;1.20;;;1.20;;
14092;SDS011;7123;49.468;10.992;2023-08-08T13:00:52;2.87;;;1.40;;
14092;SDS011;7123;49.468;10.992;2023-08-08T13:03:18;5.30;;;1.30;;
14092;SDS011;7123;49.468;10.992;2023-08-08T13:05:46;1.47;;;1.37;;
14092;SDS011;7123;49.468;10.992;2023-08-08T13:08:13;3.77;;;1.27;;
14092;SDS011;7123;49.468;10.992;2023-08-08T13:10:41;1.20;;;1.10;;
14092;SDS011;7123;49.468;10.992;2023-08-08T13:13:08;1.30;;;1.20;;
14092;SDS011;7123;49.468;10.992;2023-08-08T13:15:35;5.03;;;1.03;;
14092;SDS011;7123;49.468;10.992;2023-08-08T13:18:02;1.73;;;1.10;;
14092;SDS011;7123;49.468;10.992;2023-08-08T13:20:30;3.23;;;1.17;;
14092;SDS011;7123;49.468;10.992;2023-08-08T13:22:56;2.73;;;1.23;;
14092;SDS011;7123;49.468;10.992;2023-08-08T13:25:23;0.90;;;0.90;;
14092;SDS011;7123;49.468;10.992;2023-08-08T13:27:50;4.20;;;1.50;;
14092;SDS011;7123;49.468;10.992;2023-08-08T13:30:17;1.57;;;1.40;;
14092;SDS011;7123;49.468;10.992;2023-08-08T13:32:44;2.47;;;1.03;;
14092;SDS011;7123;49.468;10.992;2023-08-08T13:35:11;1.47;;;1.13;;
14092;SDS011;7123;49.468;10.992;2023-08-08T13:37:38;3.63;;;1.20;;
14092;SDS011;7123;49.468;10.992;2023-08-08T13:40:05;2.27;;;1.07;;
14092;SDS011;7123;49.468;10.992;2023-08-08T13:42:32;1.37;;;1.20;;
14092;SDS011;7123;49.468;10.992;2023-08-08T13:44:59;3.10;;;1.37;;
14092;SDS011;7123;49.468;10.992;2023-08-08T13:47:27;2.40;;;1.10;;
14092;SDS011;7123;49.468;10.992;2023-08-08T13:49:54;2.27;;;1.40;;
14092;SDS011;7123;49.468;10.992;2023-08-08T13:52:21;3.80;;;1.13;;
14092;SDS011;7123;49.468;10.992;2023-08-08T13:54:47;2.47;;;1.43;;
14092;SDS011;7123;49.468;10.992;2023-08-08T13:57:14;1.37;;;1.17;;
14092;SDS011;7123;49.468;10.992;2023-08-08T13:59:42;2.33;;;1.20;;
14092;SDS011;7123;49.468;10.992;2023-08-08T14:02:09;2.03;;;1.30;;
14092;SDS011;7123;49.468;10.992;2023-08-08T14:04:36;3.27;;;1.53;;
14092;SDS011;7123;49.468;10.992;2023-08-08T14:07:05;1.00;;;1.00;;
14092;SDS011;7123;49.468;10.992;2023-08-08T14:09:33;2.03;;;1.10;;
14092;SDS011;7123;49.468;10.992;2023-08-08T14:12:00;1.37;;;1.27;;
14092;SDS011;7123;49.468;10.992;2023-08-08T14:14:27;1.03;;;1.03;;
14092;SDS011;7123;49.468;10.992;2023-08-08T14:16:54;5.27;;;1.27;;
14092;SDS011;7123;49.468;10.992;2023-08-08T14:19:21;1.10;;;1.00;;
14092;SDS011;7123;49.468;10.992;2023-08-08T14:21:48;1.83;;;1.10;;
14092;SDS011;7123;49.468;10.992;2023-08-08T14:24:15;1.40;;;1.30;;
14092;SDS011;7123;49.468;10.992;2023-08-08T14:26:42;1.13;;;1.10;;
14092;SDS011;7123;49.468;10.992;2023-08-08T14:29:10;1.63;;;1.20;;
14092;SDS011;7123;49.468;10.992;2023-08-08T14:31:37;2.10;;;1.50;;
14092;SDS011;7123;49.468;10.992;2023-08-08T14:34:30;1.40;;;1.30;;
14092;SDS011;7123;49.468;10.992;2023-08-08T14:36:59;1.30;;;1.20;;
14092;SDS011;7123;49.468;10.992;2023-08-08T14:39:27;2.20;;;1.30;;
14092;SDS011;7123;49.468;10.992;2023-08-08T14:41:54;2.13;;;1.10;;
14092;SDS011;7123;49.468;10.992;2023-08-08T14:44:21;2.57;;;1.30;;
14092;SDS011;7123;49.468;10.992;2023-08-08T14:46:48;1.40;;;1.30;;
14092;SDS011;7123;49.468;10.992;2023-08-08T14:49:16;2.67;;;1.10;;
14092;SDS011;7123;49.468;10.992;2023-08-08T14:51:43;3.17;;;1.40;;
14092;SDS011;7123;49.468;10.992;2023-08-08T14:54:10;0.93;;;0.90;;